Time;durP1;ratioP1;P1;durP2;ratioP2;P2;SDS_P1;SDS_P2;PMS_P1;PMS_P2;Temp;Humidity;BMP_temperature;BMP_pressure;BME280_temperature;BME280_humidity;BME280_pressure;Samples;Min_cycle;Max_cycle;Signal;HPM_P1;HPM_P2
2023/05/11 00:00:28;;;;;;;5.43;2.28;;;;;;;;;;5066726;28;20142;-76
2023/05/11 00:02:54;;;;;;;4.60;3.05;;;;;;;;;;5071662;28;20440;-76
2023/05/11 00:05:21;;;;;;;6.60;3.22;;;;;;;;;;5063169;28;20024;-77
2023/05/11 00:07:47;;;;;;;4.50;2.42;;;;;;;;;;5072225;28;20025;-76
2023/05/11 00:10:13;;;;;;;4.70;2.72;;;;;;;;;;5068067;28;20109;-77
2023/05/11 00:12:39;;;;;;;5.55;3.20;;;;;;;;;;5069480;28;20024;-75
2023/05/11 00:15:05;;;;;;;4.07;3.67;;;;;;;;;;5069704;28;20044;-78
2023/05/11 00:17:31;;;;;;;4.47;2.60;;;;;;;;;;5058467;28;20025;-76
2023/05/11 00:19:57;;;;;;;7.57;2.70;;;;;;;;;;5060632;28;20039;-76
2023/05/11 00:22:23;;;;;;;4.95;2.83;;;;;;;;;;5075521;28;20043;-75
2023/05/11 00:24:49;;;;;;;6.05;2.95;;;;;;;;;;5069078;28;20040;-76
2023/05/11 00:27:15;;;;;;;4.53;3.75;;;;;;;;;;5070652;28;20099;-75
2023/05/11 00:29:41;;;;;;;4.20;3.10;;;;;;;;;;5069750;28;20016;-77
2023/05/11 00:32:08;;;;;;;6.82;3.28;;;;;;;;;;5069590;28;20494;-75
2023/05/11 00:34:34;;;;;;;4.03;3.20;;;;;;;;;;5059369;28;20509;-76
2023/05/11 00:37:00;;;;;;;4.57;2.42;;;;;;;;;;5065449;28;20040;-76
2023/05/11 00:39:26;;;;;;;4.63;3.13;;;;;;;;;;5057099;28;20024;-76
2023/05/11 00:41:54;;;;;;;3.72;2.58;;;;;;;;;;5063155;28;20040;-76
2023/05/11 00:44:20;;;;;;;4.20;2.60;;;;;;;;;;5066844;28;20025;-76
2023/05/11 00:46:47;;;;;;;5.95;2.80;;;;;;;;;;5064999;28;20418;-76
2023/05/11 00:49:16;;;;;;;5.60;2.63;;;;;;;;;;5060996;28;20052;-76
2023/05/11 00:51:42;;;;;;;4.18;2.50;;;;;;;;;;5064456;28;20119;-76
2023/05/11 00:54:14;;;;;;;9.65;3.03;;;;;;;;;;5067440;28;20036;-76
2023/05/11 00:56:40;;;;;;;3.20;2.20;;;;;;;;;;5065015;28;20115;-77
2023/05/11 00:59:07;;;;;;;9.52;2.60;;;;;;;;;;5065274;28;20032;-76
2023/05/11 01:01:34;;;;;;;4.22;2.35;;;;;;;;;;5064217;28;20267;-76
2023/05/11 01:04:00;;;;;;;4.28;2.10;;;;;;;;;;5063088;28;20822;-77
2023/05/11 01:06:45;;;;;;;4.47;3.25;;;;;;;;;;5066000;28;20031;-76
2023/05/11 01:09:24;;;;;;;3.35;2.28;;;;;;;;;;5062307;28;20058;-75
2023/05/11 01:11:59;;;;;;;7.07;2.50;;;;;;;;;;5061944;28;20020;-76
2023/05/11 01:14:34;;;;;;;4.82;2.55;;;;;;;;;;5063761;28;20029;-76
2023/05/11 01:17:04;;;;;;;7.75;2.53;;;;;;;;;;5063130;28;20250;-75
2023/05/11 01:19:46;;;;;;;4.45;2.28;;;;;;;;;;5070299;28;20086;-77
2023/05/11 01:22:39;;;;;;;6.40;2.35;;;;;;;;;;5063039;28;20604;-76
2023/05/11 01:25:10;;;;;;;4.70;2.35;;;;;;;;;;5041156;28;20044;-75
2023/05/11 01:27:46;;;;;;;4.43;2.13;;;;;;;;;;5066034;28;20021;-77
2023/05/11 01:30:16;;;;;;;5.13;3.40;;;;;;;;;;5065316;28;20025;-76
2023/05/11 01:32:42;;;;;;;5.22;2.50;;;;;;;;;;5068095;28;20024;-77
2023/05/11 01:35:11;;;;;;;13.57;2.70;;;;;;;;;;5063449;28;20031;-76
2023/05/11 01:37:40;;;;;;;5.35;2.30;;;;;;;;;;5068868;28;20112;-77
2023/05/11 01:40:09;;;;;;;4.45;2.60;;;;;;;;;;5078635;28;20508;-77
2023/05/11 01:42:45;;;;;;;5.20;2.60;;;;;;;;;;5058630;28;20024;-77
2023/05/11 01:45:11;;;;;;;;;;;;;;;;;;5062741;28;20023;-75
2023/05/11 01:47:37;;;;;;;;;;;;;;;;;;5061159;28;19908;-77
2023/05/11 01:50:03;;;;;;;;;;;;;;;;;;5063211;28;20515;-76
2023/05/11 01:52:28;;;;;;;;;;;;;;;;;;5067184;28;20008;-77
2023/05/11 01:54:55;;;;;;;;;;;;;;;;;;5065190;28;19967;-76
2023/05/11 01:57:20;;;;;;;;;;;;;;;;;;5057842;28;19908;-76
2023/05/11 01:59:49;;;;;;;6.95;2.42;;;;;;;;;;5068281;28;19908;-77
2023/05/11 02:02:16;;;;;;;6.85;2.75;;;;;;;;;;5068760;28;20454;-77
2023/05/11 02:04:43;;;;;;;5.78;2.42;;;;;;;;;;5064238;28;20025;-76
2023/05/11 02:07:10;;;;;;;4.70;2.75;;;;;;;;;;5066431;28;20028;-77
2023/05/11 02:09:37;;;;;;;6.68;3.28;;;;;;;;;;5067861;28;20020;-78
2023/05/11 02:12:04;;;;;;;4.25;2.63;;;;;;;;;;5058292;28;20021;-76
2023/05/11 02:14:32;;;;;;;7.45;3.35;;;;;;;;;;5069332;28;20072;-77
2023/05/11 02:17:00;;;;;;;12.55;3.38;;;;;;;;;;5065384;28;20363;-76
2023/05/11 02:19:26;;;;;;;5.45;2.58;;;;;;;;;;5065578;28;20024;-76
2023/05/11 02:21:52;;;;;;;8.93;2.78;;;;;;;;;;5060300;28;20053;-77
2023/05/11 02:24:19;;;;;;;7.13;3.35;;;;;;;;;;5065918;28;20418;-76
2023/05/11 02:26:45;;;;;;;5.15;2.25;;;;;;;;;;5063775;28;20032;-76
2023/05/11 02:29:11;;;;;;;4.68;2.40;;;;;;;;;;5066272;28;20100;-76
2023/05/11 02:31:41;;;;;;;7.43;2.88;;;;;;;;;;5063891;28;20123;-76
2023/05/11 02:34:21;;;;;;;4.60;2.40;;;;;;;;;;5065954;28;20036;-76
2023/05/11 02:36:52;;;;;;;4.55;2.72;;;;;;;;;;5057060;28;20024;-76
2023/05/11 02:39:22;;;;;;;8.25;2.63;;;;;;;;;;5059990;28;20040;-77
2023/05/11 02:41:56;;;;;;;4.85;2.70;;;;;;;;;;5065636;28;20090;-76
2023/05/11 02:44:23;;;;;;;7.65;3.47;;;;;;;;;;5066866;28;20036;-76
2023/05/11 02:46:50;;;;;;;10.27;2.80;;;;;;;;;;5066571;28;20047;-77
2023/05/11 02:49:17;;;;;;;4.72;2.47;;;;;;;;;;5060100;28;20032;-75
2023/05/11 02:51:45;;;;;;;5.13;3.50;;;;;;;;;;5067736;28;20116;-76
2023/05/11 02:54:11;;;;;;;4.07;2.42;;;;;;;;;;5067671;28;20017;-76
2023/05/11 02:56:38;;;;;;;4.07;2.30;;;;;;;;;;5070366;28;20037;-75
2023/05/11 02:59:08;;;;;;;6.72;2.35;;;;;;;;;;5069958;28;20028;-76
2023/05/11 03:01:34;;;;;;;8.65;3.47;;;;;;;;;;5064343;28;20082;-75
2023/05/11 03:04:03;;;;;;;6.47;2.83;;;;;;;;;;5069916;28;20028;-76
2023/05/11 03:06:30;;;;;;;7.20;2.92;;;;;;;;;;5061689;28;20021;-77
2023/05/11 03:08:57;;;;;;;5.20;2.60;;;;;;;;;;5070965;28;20043;-76
2023/05/11 03:11:23;;;;;;;3.78;2.78;;;;;;;;;;5069293;28;20029;-76
2023/05/11 03:13:49;;;;;;;5.03;2.42;;;;;;;;;;5069524;28;20158;-77
2023/05/11 03:16:16;;;;;;;6.25;3.78;;;;;;;;;;5067772;28;20044;-75
2023/05/11 03:18:42;;;;;;;9.18;2.65;;;;;;;;;;5060737;28;21274;-75
2023/05/11 03:21:08;;;;;;;9.65;2.42;;;;;;;;;;5062505;28;20020;-75
2023/05/11 03:23:35;;;;;;;7.05;2.97;;;;;;;;;;5069126;28;20109;-77
2023/05/11 03:26:02;;;;;;;4.00;2.40;;;;;;;;;;5063293;28;20082;-77
2023/05/11 03:28:29;;;;;;;8.02;2.90;;;;;;;;;;5059496;28;20031;-75
2023/05/11 03:30:55;;;;;;;11.10;3.08;;;;;;;;;;5067891;28;20028;-76
2023/05/11 03:33:22;;;;;;;6.88;2.75;;;;;;;;;;5067133;28;20037;-76
2023/05/11 03:35:49;;;;;;;6.18;3.00;;;;;;;;;;5068469;28;20056;-77
2023/05/11 03:38:16;;;;;;;8.35;3.58;;;;;;;;;;5067799;28;20029;-77
2023/05/11 03:40:43;;;;;;;8.63;3.25;;;;;;;;;;5061429;28;20044;-77
2023/05/11 03:43:11;;;;;;;8.35;3.10;;;;;;;;;;5082567;28;20051;-74
2023/05/11 03:45:37;;;;;;;7.63;2.75;;;;;;;;;;5058681;28;20393;-76
2023/05/11 03:48:04;;;;;;;6.32;2.42;;;;;;;;;;5065878;28;20037;-75
2023/05/11 03:50:30;;;;;;;10.35;3.20;;;;;;;;;;5065134;28;20028;-77
2023/05/11 03:52:57;;;;;;;9.32;3.22;;;;;;;;;;5061916;28;20558;-75
2023/05/11 03:55:23;;;;;;;8.82;2.80;;;;;;;;;;5064725;28;20035;-78
2023/05/11 03:57:50;;;;;;;6.60;2.70;;;;;;;;;;5059305;28;20036;-76
2023/05/11 04:00:16;;;;;;;10.05;2.67;;;;;;;;;;5067026;28;20052;-76
2023/05/11 04:02:43;;;;;;;6.95;2.70;;;;;;;;;;5064236;28;20032;-74
2023/05/11 04:05:10;;;;;;;6.82;3.08;;;;;;;;;;5064313;28;20505;-76
2023/05/11 04:07:36;;;;;;;8.13;2.70;;;;;;;;;;5065765;28;20024;-75
2023/05/11 04:10:03;;;;;;;6.95;3.45;;;;;;;;;;5066247;28;20024;-76
2023/05/11 04:12:29;;;;;;;5.35;2.58;;;;;;;;;;5063729;28;20086;-74
2023/05/11 04:14:55;;;;;;;28.60;4.82;;;;;;;;;;5070305;28;20028;-76
2023/05/11 04:17:21;;;;;;;8.57;2.78;;;;;;;;;;5067380;28;20488;-76
2023/05/11 04:19:48;;;;;;;13.52;3.70;;;;;;;;;;5066879;28;20025;-76
2023/05/11 04:22:14;;;;;;;5.25;2.42;;;;;;;;;;5059231;28;20398;-76
2023/05/11 04:24:40;;;;;;;10.90;3.00;;;;;;;;;;5069887;28;20086;-77
2023/05/11 04:27:06;;;;;;;8.40;2.70;;;;;;;;;;5067342;28;20030;-76
2023/05/11 04:29:32;;;;;;;6.78;2.80;;;;;;;;;;5069031;28;20048;-77
2023/05/11 04:31:58;;;;;;;5.28;2.55;;;;;;;;;;5065267;28;20033;-76
2023/05/11 04:34:24;;;;;;;6.60;2.90;;;;;;;;;;5069742;28;20111;-76
2023/05/11 04:36:51;;;;;;;8.98;2.90;;;;;;;;;;5068843;28;20028;-76
2023/05/11 04:39:17;;;;;;;6.97;3.08;;;;;;;;;;5060697;28;20043;-76
2023/05/11 04:41:44;;;;;;;10.95;3.13;;;;;;;;;;5066129;28;20024;-75
2023/05/11 04:44:10;;;;;;;7.53;2.97;;;;;;;;;;5060445;28;20032;-77
2023/05/11 04:46:39;;;;;;;11.10;2.75;;;;;;;;;;5068583;28;20578;-75
2023/05/11 04:49:06;;;;;;;12.23;3.00;;;;;;;;;;5064753;28;20089;-76
2023/05/11 04:51:32;;;;;;;11.55;3.22;;;;;;;;;;5061829;28;20035;-74
2023/05/11 04:53:58;;;;;;;4.72;2.88;;;;;;;;;;5064793;28;20024;-75
2023/05/11 04:56:25;;;;;;;11.00;3.10;;;;;;;;;;5067562;28;20031;-74
2023/05/11 04:58:51;;;;;;;6.20;3.08;;;;;;;;;;5065180;28;20027;-76
2023/05/11 05:01:17;;;;;;;7.03;3.67;;;;;;;;;;5064892;28;20036;-76
2023/05/11 05:03:43;;;;;;;8.70;4.63;;;;;;;;;;5068436;28;20012;-75
2023/05/11 05:06:09;;;;;;;12.52;3.97;;;;;;;;;;5063474;28;20025;-75
2023/05/11 05:08:35;;;;;;;8.13;2.85;;;;;;;;;;5069819;28;20498;-77
2023/05/11 05:11:01;;;;;;;7.28;3.45;;;;;;;;;;5061632;28;20028;-76
2023/05/11 05:13:27;;;;;;;13.80;4.10;;;;;;;;;;5066894;28;20025;-75
2023/05/11 05:15:53;;;;;;;9.25;3.63;;;;;;;;;;5066425;28;20017;-76
2023/05/11 05:18:19;;;;;;;9.23;3.03;;;;;;;;;;5066840;28;20135;-78
2023/05/11 05:20:47;;;;;;;9.88;4.35;;;;;;;;;;5063113;28;20051;-75
2023/05/11 05:23:13;;;;;;;10.75;2.90;;;;;;;;;;5064596;28;20055;-76
2023/05/11 05:25:39;;;;;;;10.20;2.92;;;;;;;;;;5062091;28;20021;-76
2023/05/11 05:28:05;;;;;;;10.15;3.72;;;;;;;;;;5065099;28;20086;-78
2023/05/11 05:30:32;;;;;;;7.03;2.70;;;;;;;;;;5061309;28;20078;-76
2023/05/11 05:32:58;;;;;;;8.98;3.38;;;;;;;;;;5066415;28;20025;-77
2023/05/11 05:35:24;;;;;;;9.07;3.38;;;;;;;;;;5064225;28;20066;-76
2023/05/11 05:37:50;;;;;;;10.52;3.08;;;;;;;;;;5066597;28;20048;-75
2023/05/11 05:40:16;;;;;;;9.82;2.75;;;;;;;;;;5071495;28;20033;-76
2023/05/11 05:42:42;;;;;;;9.38;3.38;;;;;;;;;;5059555;28;20481;-75
2023/05/11 05:45:09;;;;;;;8.50;3.08;;;;;;;;;;5072126;28;20382;-77
2023/05/11 05:47:35;;;;;;;6.10;2.92;;;;;;;;;;5059427;28;20549;-76
2023/05/11 05:50:01;;;;;;;7.28;3.40;;;;;;;;;;5057811;28;20032;-76
2023/05/11 05:52:27;;;;;;;8.93;3.10;;;;;;;;;;5069018;28;20111;-76
2023/05/11 05:54:53;;;;;;;11.98;2.90;;;;;;;;;;5074700;28;20041;-76
2023/05/11 05:57:19;;;;;;;7.63;3.92;;;;;;;;;;5066239;28;20486;-77
2023/05/11 05:59:45;;;;;;;15.48;3.40;;;;;;;;;;5065858;28;20032;-77
2023/05/11 06:02:12;;;;;;;7.45;3.97;;;;;;;;;;5062821;28;20112;-75
2023/05/11 06:04:44;;;;;;;8.25;2.67;;;;;;;;;;5063572;28;20087;-77
2023/05/11 06:07:10;;;;;;;10.35;3.60;;;;;;;;;;5063701;28;20032;-77
2023/05/11 06:09:36;;;;;;;7.43;3.38;;;;;;;;;;5064657;28;20103;-77
2023/05/11 06:12:03;;;;;;;12.98;4.53;;;;;;;;;;5066701;28;20033;-77
2023/05/11 06:14:33;;;;;;;11.15;4.00;;;;;;;;;;5081002;28;20025;-76
2023/05/11 06:16:59;;;;;;;14.48;3.10;;;;;;;;;;5064138;28;20033;-76
2023/05/11 06:19:25;;;;;;;9.52;3.08;;;;;;;;;;5069502;28;20541;-77
2023/05/11 06:21:51;;;;;;;9.10;3.47;;;;;;;;;;5065146;28;20110;-76
2023/05/11 06:24:17;;;;;;;10.00;3.20;;;;;;;;;;5056644;28;20049;-77
2023/05/11 06:26:43;;;;;;;7.80;3.53;;;;;;;;;;5065913;28;20048;-76
2023/05/11 06:29:09;;;;;;;10.45;3.60;;;;;;;;;;5067981;28;20444;-76
2023/05/11 06:31:35;;;;;;;7.55;3.72;;;;;;;;;;5070820;28;20051;-76
2023/05/11 06:34:02;;;;;;;10.63;3.53;;;;;;;;;;5063080;28;20033;-77
2023/05/11 06:36:28;;;;;;;12.15;3.20;;;;;;;;;;5067931;28;20028;-76
2023/05/11 06:38:54;;;;;;;14.00;4.95;;;;;;;;;;5071191;28;20025;-76
2023/05/11 06:41:21;;;;;;;8.48;3.15;;;;;;;;;;5066715;28;20435;-78
2023/05/11 06:43:47;;;;;;;6.75;3.40;;;;;;;;;;5065336;28;20020;-76
2023/05/11 06:46:16;;;;;;;5.28;3.08;;;;;;;;;;5060517;28;20024;-76
2023/05/11 06:48:42;;;;;;;10.27;3.47;;;;;;;;;;5062275;28;20047;-76
2023/05/11 06:51:11;;;;;;;14.88;4.55;;;;;;;;;;5070990;28;20033;-76
2023/05/11 06:53:38;;;;;;;6.75;3.22;;;;;;;;;;5074776;28;20039;-76
2023/05/11 06:56:04;;;;;;;8.85;3.13;;;;;;;;;;5063506;28;20415;-75
2023/05/11 06:58:30;;;;;;;13.70;3.45;;;;;;;;;;5055039;28;20479;-77
2023/05/11 07:00:56;;;;;;;11.00;3.35;;;;;;;;;;5062830;28;20029;-76
2023/05/11 07:03:23;;;;;;;4.55;2.55;;;;;;;;;;5067851;28;21008;-76
2023/05/11 07:05:49;;;;;;;8.15;3.28;;;;;;;;;;5059301;28;20021;-76
2023/05/11 07:08:15;;;;;;;11.13;3.50;;;;;;;;;;5058610;28;20079;-75
2023/05/11 07:10:41;;;;;;;7.38;3.55;;;;;;;;;;5068477;28;20032;-77
2023/05/11 07:13:08;;;;;;;11.15;4.05;;;;;;;;;;5062822;28;20082;-76
2023/05/11 07:15:34;;;;;;;10.35;3.28;;;;;;;;;;5079551;28;20052;-76
2023/05/11 07:18:00;;;;;;;9.32;3.75;;;;;;;;;;5068243;28;20490;-77
2023/05/11 07:20:26;;;;;;;4.97;2.22;;;;;;;;;;5061033;28;20275;-75
2023/05/11 07:22:56;;;;;;;5.82;3.88;;;;;;;;;;5069242;28;20494;-77
2023/05/11 07:25:23;;;;;;;10.30;3.97;;;;;;;;;;5065329;28;20051;-76
2023/05/11 07:27:49;;;;;;;17.38;3.50;;;;;;;;;;5064461;28;20096;-76
2023/05/11 07:30:16;;;;;;;7.10;3.00;;;;;;;;;;5066463;28;20098;-76
2023/05/11 07:32:42;;;;;;;10.52;2.80;;;;;;;;;;5065436;28;20025;-77
2023/05/11 07:35:08;;;;;;;7.47;2.55;;;;;;;;;;5060415;28;20030;-76
2023/05/11 07:37:34;;;;;;;5.38;2.35;;;;;;;;;;5063433;28;20522;-75
2023/05/11 07:40:00;;;;;;;7.18;3.33;;;;;;;;;;5064975;28;20153;-77
2023/05/11 07:42:26;;;;;;;13.43;3.28;;;;;;;;;;5065374;28;20068;-77
2023/05/11 07:44:52;;;;;;;4.32;3.15;;;;;;;;;;5071190;28;20547;-76
2023/05/11 07:47:19;;;;;;;5.13;2.30;;;;;;;;;;5065944;28;20024;-76
2023/05/11 07:49:49;;;;;;;3.90;2.40;;;;;;;;;;5066948;28;20020;-77
2023/05/11 07:52:15;;;;;;;8.80;3.10;;;;;;;;;;5083235;28;20097;-77
2023/05/11 07:54:41;;;;;;;2.97;2.35;;;;;;;;;;5066434;28;20573;-76
2023/05/11 07:57:10;;;;;;;5.93;2.17;;;;;;;;;;5066669;28;20032;-77
2023/05/11 07:59:36;;;;;;;7.97;2.70;;;;;;;;;;5070728;28;21952;-77
2023/05/11 08:02:03;;;;;;;7.22;3.15;;;;;;;;;;5071119;28;20398;-76
2023/05/11 08:04:29;;;;;;;6.13;2.13;;;;;;;;;;5087324;28;20394;-77
2023/05/11 08:06:55;;;;;;;5.57;2.13;;;;;;;;;;5062994;28;20035;-77
2023/05/11 08:09:22;;;;;;;5.05;2.40;;;;;;;;;;5070501;28;20020;-77
2023/05/11 08:11:48;;;;;;;5.15;2.03;;;;;;;;;;5066931;28;20490;-77
2023/05/11 08:14:15;;;;;;;3.85;2.00;;;;;;;;;;5069286;28;20070;-77
2023/05/11 08:16:42;;;;;;;6.88;2.25;;;;;;;;;;5070183;28;20052;-77
2023/05/11 08:19:08;;;;;;;3.80;2.17;;;;;;;;;;5065028;28;20032;-78
2023/05/11 08:21:34;;;;;;;6.47;2.72;;;;;;;;;;5068344;28;20363;-76
2023/05/11 08:24:00;;;;;;;3.22;2.40;;;;;;;;;;5072032;28;20483;-77
2023/05/11 08:26:27;;;;;;;4.43;2.15;;;;;;;;;;5073158;28;20044;-79
2023/05/11 08:28:53;;;;;;;4.75;2.10;;;;;;;;;;5066251;28;20046;-77
2023/05/11 08:31:19;;;;;;;3.90;2.30;;;;;;;;;;5071407;28;20056;-78
2023/05/11 08:33:45;;;;;;;3.22;2.47;;;;;;;;;;5066857;28;20027;-77
2023/05/11 08:36:14;;;;;;;2.88;2.10;;;;;;;;;;5070600;28;20078;-77
2023/05/11 08:38:40;;;;;;;5.65;2.72;;;;;;;;;;5072898;28;20034;-77
2023/05/11 08:41:07;;;;;;;4.50;2.30;;;;;;;;;;5072401;28;20032;-78
2023/05/11 08:43:38;;;;;;;7.65;2.45;;;;;;;;;;5074237;28;20024;-77
2023/05/11 08:46:08;;;;;;;4.43;2.22;;;;;;;;;;5073799;28;20055;-77
2023/05/11 08:48:35;;;;;;;5.93;2.30;;;;;;;;;;5066864;28;20024;-78
2023/05/11 08:51:03;;;;;;;4.55;2.17;;;;;;;;;;5070867;28;20035;-78
2023/05/11 08:53:29;;;;;;;5.20;2.30;;;;;;;;;;5077967;28;20050;-77
2023/05/11 08:55:58;;;;;;;6.13;2.58;;;;;;;;;;5072520;28;20032;-76
2023/05/11 08:58:24;;;;;;;5.60;2.28;;;;;;;;;;5070145;28;20035;-76
2023/05/11 09:00:51;;;;;;;6.97;2.35;;;;;;;;;;5066756;28;20033;-77
2023/05/11 09:03:18;;;;;;;4.55;2.30;;;;;;;;;;5069077;28;20371;-78
2023/05/11 09:05:48;;;;;;;5.22;2.08;;;;;;;;;;5069576;28;20027;-75
2023/05/11 09:08:14;;;;;;;3.45;2.28;;;;;;;;;;5065625;28;20107;-77
2023/05/11 09:10:42;;;;;;;7.47;2.28;;;;;;;;;;5059093;28;20502;-78
2023/05/11 09:13:08;;;;;;;3.53;2.10;;;;;;;;;;5070229;28;21777;-76
2023/05/11 09:15:34;;;;;;;5.28;2.20;;;;;;;;;;5065818;28;20052;-77
2023/05/11 09:18:01;;;;;;;3.75;2.30;;;;;;;;;;5066526;28;20546;-77
2023/05/11 09:20:28;;;;;;;5.07;2.10;;;;;;;;;;5070192;28;20107;-76
2023/05/11 09:22:55;;;;;;;3.25;1.92;;;;;;;;;;5062648;28;20106;-77
2023/05/11 09:25:22;;;;;;;2.08;1.80;;;;;;;;;;5065085;28;20504;-76
2023/05/11 09:27:48;;;;;;;2.15;1.77;;;;;;;;;;5067946;28;20024;-76
2023/05/11 09:30:16;;;;;;;4.13;2.00;;;;;;;;;;5069092;28;20074;-75
2023/05/11 09:32:49;;;;;;;3.58;2.22;;;;;;;;;;5067526;28;20021;-77
2023/05/11 09:35:22;;;;;;;5.85;2.95;;;;;;;;;;5074242;28;20107;-76
2023/05/11 09:37:57;;;;;;;3.45;2.00;;;;;;;;;;5070088;28;20110;-76
2023/05/11 09:40:24;;;;;;;6.00;1.83;;;;;;;;;;5072818;28;20046;-76
2023/05/11 09:42:50;;;;;;;6.95;2.00;;;;;;;;;;5067791;28;20056;-76
2023/05/11 09:45:35;;;;;;;2.85;1.73;;;;;;;;;;5064937;28;20099;-76
2023/05/11 09:48:02;;;;;;;4.90;2.10;;;;;;;;;;5062365;28;20052;-77
2023/05/11 09:50:36;;;;;;;3.55;1.92;;;;;;;;;;5068470;28;20025;-77
2023/05/11 09:53:02;;;;;;;4.53;2.33;;;;;;;;;;5061803;28;20481;-77
2023/05/11 09:55:28;;;;;;;3.15;2.00;;;;;;;;;;5061992;28;20030;-77
2023/05/11 09:57:58;;;;;;;2.30;1.63;;;;;;;;;;5056030;28;20855;-76
2023/05/11 10:00:25;;;;;;;4.68;2.40;;;;;;;;;;5051239;28;20511;-77
2023/05/11 10:03:01;;;;;;;2.42;1.88;;;;;;;;;;5058433;28;20148;-77
2023/05/11 10:05:28;;;;;;;2.95;2.25;;;;;;;;;;5059374;28;20021;-76
2023/05/11 10:08:01;;;;;;;4.45;2.85;;;;;;;;;;5061535;28;20502;-77
2023/05/11 10:10:30;;;;;;;3.78;2.15;;;;;;;;;;5062356;28;20043;-76
2023/05/11 10:12:57;;;;;;;3.63;1.92;;;;;;;;;;5062318;28;20024;-76
2023/05/11 10:15:25;;;;;;;4.90;1.88;;;;;;;;;;5079465;28;20044;-76
2023/05/11 10:17:53;;;;;;;5.03;2.38;;;;;;;;;;5065438;28;20020;-76
2023/05/11 10:20:20;;;;;;;7.05;2.13;;;;;;;;;;5060491;28;20059;-76
2023/05/11 10:22:46;;;;;;;2.75;2.20;;;;;;;;;;5057957;28;20068;-77
2023/05/11 10:25:13;;;;;;;5.10;2.63;;;;;;;;;;5062529;28;20486;-78
2023/05/11 10:27:39;;;;;;;2.90;2.08;;;;;;;;;;5055136;28;20406;-77
2023/05/11 10:30:07;;;;;;;4.55;2.28;;;;;;;;;;5055410;28;20079;-77
2023/05/11 10:32:38;;;;;;;3.97;2.22;;;;;;;;;;5061281;28;20374;-77
2023/05/11 10:35:05;;;;;;;3.17;1.88;;;;;;;;;;5079763;28;20101;-75
2023/05/11 10:37:32;;;;;;;2.17;1.60;;;;;;;;;;5059967;28;20056;-76
2023/05/11 10:39:58;;;;;;;1.60;1.50;;;;;;;;;;5056271;28;20093;-75
2023/05/11 10:42:27;;;;;;;4.30;1.85;;;;;;;;;;5062771;28;20033;-77
2023/05/11 10:44:53;;;;;;;2.50;1.92;;;;;;;;;;5061950;28;20024;-76
2023/05/11 10:47:22;;;;;;;2.13;1.75;;;;;;;;;;5063227;28;20021;-76
2023/05/11 10:49:48;;;;;;;3.47;1.80;;;;;;;;;;5060832;28;20583;-76
2023/05/11 10:52:27;;;;;;;3.45;1.70;;;;;;;;;;5059973;28;20123;-77
2023/05/11 10:54:53;;;;;;;3.63;1.90;;;;;;;;;;5060858;28;20463;-77
2023/05/11 10:57:34;;;;;;;2.67;1.95;;;;;;;;;;5065415;28;20513;-76
2023/05/11 11:00:19;;;;;;;2.47;2.00;;;;;;;;;;5060832;28;20090;-77
2023/05/11 11:02:45;;;;;;;2.70;1.83;;;;;;;;;;5060483;28;20032;-76
2023/05/11 11:05:15;;;;;;;2.40;1.80;;;;;;;;;;5063907;28;20035;-76
2023/05/11 11:08:02;;;;;;;2.80;1.80;;;;;;;;;;5064225;28;20028;-77
2023/05/11 11:10:32;;;;;;;2.50;1.85;;;;;;;;;;5061392;28;20025;-77
2023/05/11 11:13:02;;;;;;;2.53;1.70;;;;;;;;;;5064557;28;20025;-77
2023/05/11 11:15:47;;;;;;;2.28;2.00;;;;;;;;;;5061908;28;20077;-77
2023/05/11 11:18:26;;;;;;;1.60;1.50;;;;;;;;;;5062400;28;20021;-77
2023/05/11 11:20:53;;;;;;;2.83;1.70;;;;;;;;;;5063761;28;20037;-77
2023/05/11 11:23:49;;;;;;;1.98;1.60;;;;;;;;;;5063057;28;20101;-77
2023/05/11 11:26:17;;;;;;;2.30;1.75;;;;;;;;;;5053936;28;20029;-77
2023/05/11 11:28:56;;;;;;;2.67;1.70;;;;;;;;;;5068793;28;20020;-77
2023/05/11 11:31:24;;;;;;;2.92;1.70;;;;;;;;;;5066383;28;20036;-77
2023/05/11 11:33:50;;;;;;;6.03;1.80;;;;;;;;;;5066544;28;20131;-78
2023/05/11 11:36:17;;;;;;;2.45;2.00;;;;;;;;;;5065628;28;20045;-77
2023/05/11 11:39:02;;;;;;;4.20;1.75;;;;;;;;;;5066783;28;20101;-77
2023/05/11 11:41:29;;;;;;;4.80;1.83;;;;;;;;;;5060865;28;20087;-76
2023/05/11 11:43:56;;;;;;;2.65;1.90;;;;;;;;;;5068029;28;20086;-77
2023/05/11 11:46:27;;;;;;;3.78;2.15;;;;;;;;;;5064411;28;20029;-77
2023/05/11 11:49:06;;;;;;;4.60;2.38;;;;;;;;;;5063491;28;20115;-76
2023/05/11 11:51:33;;;;;;;2.00;1.80;;;;;;;;;;5062019;28;20249;-77
2023/05/11 11:53:59;;;;;;;2.47;1.60;;;;;;;;;;5063216;28;20054;-77
2023/05/11 11:56:25;;;;;;;1.63;1.52;;;;;;;;;;5059095;28;20048;-77
2023/05/11 11:58:51;;;;;;;1.92;1.40;;;;;;;;;;5064153;28;20033;-76
2023/05/11 12:01:19;;;;;;;2.20;1.60;;;;;;;;;;5066670;28;20024;-77
2023/05/11 12:03:46;;;;;;;1.70;1.60;;;;;;;;;;5067377;28;20059;-74
2023/05/11 12:06:13;;;;;;;1.67;1.42;;;;;;;;;;5070782;28;20032;-78
2023/05/11 12:08:40;;;;;;;2.33;1.50;;;;;;;;;;5073625;28;20394;-78
2023/05/11 12:11:06;;;;;;;2.65;1.45;;;;;;;;;;5070336;28;20028;-78
2023/05/11 12:13:33;;;;;;;3.47;1.50;;;;;;;;;;5072496;28;20370;-77
2023/05/11 12:16:09;;;;;;;2.83;1.73;;;;;;;;;;5064945;28;20138;-78
2023/05/11 12:18:35;;;;;;;2.40;1.50;;;;;;;;;;5070564;28;20033;-77
2023/05/11 12:21:01;;;;;;;1.77;1.63;;;;;;;;;;5074360;28;20028;-77
2023/05/11 12:23:31;;;;;;;3.88;1.90;;;;;;;;;;5075322;28;20032;-79
2023/05/11 12:26:04;;;;;;;4.65;2.10;;;;;;;;;;5070853;28;20123;-77
2023/05/11 12:28:31;;;;;;;2.15;1.70;;;;;;;;;;5065283;28;20538;-77
2023/05/11 12:30:57;;;;;;;2.50;1.75;;;;;;;;;;5070684;28;20028;-77
2023/05/11 12:33:24;;;;;;;3.22;2.10;;;;;;;;;;5072866;28;20029;-77
2023/05/11 12:35:54;;;;;;;1.85;1.70;;;;;;;;;;5072445;28;20024;-76
2023/05/11 12:38:20;;;;;;;3.42;1.70;;;;;;;;;;5069336;28;20193;-78
2023/05/11 12:40:52;;;;;;;2.95;2.00;;;;;;;;;;5067881;28;20040;-77
2023/05/11 12:43:19;;;;;;;2.50;1.67;;;;;;;;;;5067617;28;20032;-78
2023/05/11 12:45:46;;;;;;;4.03;1.75;;;;;;;;;;5065598;28;20061;-77
2023/05/11 12:48:12;;;;;;;2.28;1.63;;;;;;;;;;5063194;28;20035;-76
2023/05/11 12:50:42;;;;;;;1.55;1.40;;;;;;;;;;5058535;28;20397;-77
2023/05/11 12:53:15;;;;;;;1.55;1.42;;;;;;;;;;5069805;28;20790;-76
2023/05/11 12:55:41;;;;;;;4.13;1.83;;;;;;;;;;5066158;28;20032;-77
2023/05/11 12:58:08;;;;;;;2.22;2.10;;;;;;;;;;5065817;28;20509;-77
2023/05/11 13:00:34;;;;;;;3.10;1.77;;;;;;;;;;5061540;28;20056;-77
2023/05/11 13:03:01;;;;;;;3.17;1.70;;;;;;;;;;5066567;28;20508;-77
2023/05/11 13:05:28;;;;;;;3.47;2.00;;;;;;;;;;5068846;28;20036;-76
2023/05/11 13:07:58;;;;;;;1.50;1.40;;;;;;;;;;5063196;28;20397;-77
2023/05/11 13:10:25;;;;;;;1.63;1.50;;;;;;;;;;5065725;28;20081;-75
2023/05/11 13:12:52;;;;;;;2.00;1.60;;;;;;;;;;5062615;28;20036;-75
2023/05/11 13:15:19;;;;;;;4.38;2.00;;;;;;;;;;5050559;28;20028;-77
2023/05/11 13:17:45;;;;;;;3.38;2.00;;;;;;;;;;5068232;28;20098;-78
2023/05/11 13:20:18;;;;;;;4.72;1.63;;;;;;;;;;5059443;28;20076;-76
2023/05/11 13:22:44;;;;;;;1.50;1.40;;;;;;;;;;5056901;28;20486;-77
2023/05/11 13:25:10;;;;;;;5.15;2.10;;;;;;;;;;5060630;28;20025;-76
2023/05/11 13:27:37;;;;;;;2.88;1.60;;;;;;;;;;5060495;28;20036;-76
2023/05/11 13:30:03;;;;;;;4.07;2.50;;;;;;;;;;5054221;28;20037;-76
2023/05/11 13:32:30;;;;;;;2.28;1.80;;;;;;;;;;5056592;28;20086;-76
2023/05/11 13:34:56;;;;;;;2.90;2.00;;;;;;;;;;5057479;28;20068;-76
2023/05/11 13:37:22;;;;;;;2.25;1.65;;;;;;;;;;5059646;28;20032;-76
2023/05/11 13:39:48;;;;;;;3.40;1.88;;;;;;;;;;5057509;28;20433;-76
2023/05/11 13:42:14;;;;;;;1.98;1.77;;;;;;;;;;5057944;28;20055;-76
2023/05/11 13:44:40;;;;;;;3.95;1.80;;;;;;;;;;5056436;28;20025;-76
2023/05/11 13:47:07;;;;;;;1.92;1.70;;;;;;;;;;5059046;28;20032;-76
2023/05/11 13:49:33;;;;;;;2.42;2.22;;;;;;;;;;5049836;28;20113;-77
2023/05/11 13:51:59;;;;;;;3.63;2.50;;;;;;;;;;5046947;28;20032;-76
2023/05/11 13:54:25;;;;;;;3.67;2.42;;;;;;;;;;5055909;28;20037;-77
2023/05/11 13:56:51;;;;;;;3.65;2.30;;;;;;;;;;5060192;28;20025;-77
2023/05/11 13:59:17;;;;;;;1.90;1.75;;;;;;;;;;5061786;28;20032;-77
2023/05/11 14:01:43;;;;;;;3.58;2.25;;;;;;;;;;5054830;28;20404;-76
2023/05/11 14:04:09;;;;;;;2.97;2.05;;;;;;;;;;5055635;28;20082;-77
2023/05/11 14:06:36;;;;;;;1.85;1.40;;;;;;;;;;5058168;28;20025;-77
2023/05/11 14:09:02;;;;;;;1.70;1.60;;;;;;;;;;5059169;28;20132;-77
2023/05/11 14:11:28;;;;;;;1.83;1.70;;;;;;;;;;5060417;28;20056;-77
2023/05/11 14:13:54;;;;;;;1.83;1.48;;;;;;;;;;5061132;28;20028;-79
2023/05/11 14:16:21;;;;;;;1.80;1.33;;;;;;;;;;5061167;28;20454;-77
2023/05/11 14:18:49;;;;;;;1.20;1.20;;;;;;;;;;5052501;28;20113;-76
2023/05/11 14:21:16;;;;;;;1.80;1.70;;;;;;;;;;4998120;28;1660654;-76
2023/05/11 14:23:42;;;;;;;2.20;1.60;;;;;;;;;;5055149;28;20029;-77
2023/05/11 14:26:08;;;;;;;1.67;1.58;;;;;;;;;;5053500;28;20123;-77
2023/05/11 14:28:34;;;;;;;1.85;1.52;;;;;;;;;;5055790;28;20036;-77
2023/05/11 14:31:00;;;;;;;1.60;1.50;;;;;;;;;;5054755;28;20194;-76
2023/05/11 14:33:26;;;;;;;2.13;1.60;;;;;;;;;;5051269;28;20115;-78
2023/05/11 14:35:53;;;;;;;2.78;1.67;;;;;;;;;;5054615;28;20034;-77
2023/05/11 14:38:19;;;;;;;1.90;1.67;;;;;;;;;;5053690;28;20850;-76
2023/05/11 14:40:45;;;;;;;1.40;1.40;;;;;;;;;;5051878;28;20031;-77
2023/05/11 14:43:12;;;;;;;3.20;1.58;;;;;;;;;;5063267;28;20060;-77
2023/05/11 14:45:38;;;;;;;1.35;1.25;;;;;;;;;;5057088;28;20021;-77